Main page
METAR-TAF:

Airports :

Warsaw, Poland

Warsaw Chopin Airport

latitude: 52-10N, longitude: 020-58E, elevation: 106 m

Current weather observation

The report was made 5 minutes ago, at 02:30 UTC
Wind 1 kt from the North
Temperature 13°C
Humidity 100%
Pressure 1026 hPa
Visibility 10 km or more
Shallow fog

METAR: EPWA 250230Z 01001KT 9999 MIFG NSC 13/13 Q1026 NOSIG

Time: 04:35 (02:35 UTC)

Forecast

The report was made 3 hours and 5 minutes ago, at 23:30 UTC
Forecast valid from 25 at 00 UTC to 25 at 24 UTC
Wind 2 kt from variable directions
Visibility 10 km or more
no clouds below 1500 m and no cumulonimbus
Temporary
from 25 at 00 UTC to 25 at 06 UTC
Visibility: 3000 m
mist
Probability 40%
from 25 at 01 UTC to 25 at 05 UTC
Visibility: 0600 m
fog

TAF: EPWA 242330Z 2500/2524 VRB02KT CAVOK TEMPO 2500/2506 3000 BR PROB40 2501/2505 0600 FG

METAR-TAF

Weather observations and forecasts of more than 4000 airports (METAR and TAF reports).

The available stations are represented by yellow and red dots on the map.

Hover mouse over dot to see the name of the station.

Then click to see weather observations and forecasts.

To change the map : click on the green buttons with a black cross to zoom in, on the green button with a dash to zoom out, or on the green arrows for adjacent maps.


METAR-TAF: